Delta Virtual Airport Information Service

New York John F. Kennedy International Airport

ICAO: KJFK Country: United States
Latitude: 40.6398 Longitude: -73.7789
Latest Arrival : JBU2633251 (TJSJ-KJFK) Latest Departure : DAL6756201 (KJFK-KBOS)


WX CaptureLIVE
Data provided by noaa.gov | Fetched at 00:34:32

METAR : KJFK 250451Z 05006KT 10SM OVC012 14/13 A3023 RMK AO2 SLP236 T01440133 401830106 $

TAF : KJFK 250404Z 2504/2606 05005KT P6SM SCT008 BKN015 TEMPO 2507/2509 BKN008 FM250900 04005KT P6SM BKN008 TEMPO 2509/2512 5SM BR FM251300 06007KT P6SM BKN020 FM251700 14010KT P6SM SCT030


Runway Data for KJFK
Data provided by openaviationdata.com

Runway ID Mag Var Hdg Length Elevation Surface ILS Freq ILS Id ILS Slope
04L -14 44° 11353 ft 13 ft Asphalt 110.9 IHIQ 3
04R -14 44° 8401 ft 13 ft Asphalt 109.5 IJFK 3
13L -14 134° 9992 ft 13 ft Asphalt 111.5 ITLK 3
13R -14 134° 14564 ft 13 ft Asphalt -- -- --
22L -14 224° 8401 ft 13 ft Asphalt 110.9 IIWY 3
22R -14 224° 11353 ft 13 ft Asphalt 109.5 IJOC 3
31L -14 314° 14564 ft 13 ft Asphalt 111.35 IMOH 3
31R -14 314° 9992 ft 13 ft Asphalt 111.5 IRTH 3

New York John F. Kennedy International Airport, United States
Use only for reference purposes



Not for navigational purposes.